Time;durP1;ratioP1;P1;durP2;ratioP2;P2;SDS_P1;SDS_P2;PMS_P1;PMS_P2;Temp;Humidity;BMP_temperature;BMP_pressure;BME280_temperature;BME280_humidity;BME280_pressure;Samples;Min_cycle;Max_cycle;Signal;HPM_P1;HPM_P2
2022/06/13 00:01:55;;;;;;;6.28;3.33;;;13.90;99.90;;;;;;5056692;28;20032;-46
2022/06/13 00:04:21;;;;;;;7.78;3.22;;;14.00;99.90;;;;;;5055500;28;20163;-44
2022/06/13 00:06:47;;;;;;;8.30;2.60;;;14.00;99.90;;;;;;5069335;28;20086;-45
2022/06/13 00:09:12;;;;;;;8.07;3.38;;;14.00;99.90;;;;;;5062843;28;20715;-45
2022/06/13 00:11:38;;;;;;;9.27;3.45;;;14.00;99.90;;;;;;5061582;28;20102;-43
2022/06/13 00:14:04;;;;;;;8.35;3.13;;;14.10;99.90;;;;;;5062986;28;20048;-44
2022/06/13 00:16:30;;;;;;;5.32;2.45;;;14.10;99.90;;;;;;5053070;28;20510;-43
2022/06/13 00:18:56;;;;;;;4.43;2.42;;;14.00;99.90;;;;;;5064482;28;20474;-44
2022/06/13 00:21:27;;;;;;;4.47;2.00;;;14.00;99.90;;;;;;5050636;28;20140;-45
2022/06/13 00:23:53;;;;;;;6.32;2.38;;;13.90;99.90;;;;;;5055882;28;20511;-43
2022/06/13 00:26:21;;;;;;;7.93;3.83;;;13.90;99.90;;;;;;5069509;28;20113;-44
2022/06/13 00:28:48;;;;;;;7.00;2.97;;;13.90;99.90;;;;;;5069848;28;20124;-45
2022/06/13 00:31:14;;;;;;;14.85;4.38;;;14.00;99.90;;;;;;5066253;28;20055;-44
2022/06/13 00:33:39;;;;;;;11.18;3.60;;;14.00;99.90;;;;;;5054530;28;20048;-45
2022/06/13 00:36:06;;;;;;;9.88;3.70;;;14.00;99.90;;;;;;5068573;28;20575;-44
2022/06/13 00:38:31;;;;;;;8.68;3.92;;;14.00;99.90;;;;;;5062729;28;20490;-44
2022/06/13 00:40:57;;;;;;;10.70;4.55;;;14.00;99.90;;;;;;5071661;28;20051;-44
2022/06/13 00:43:22;;;;;;;6.72;3.72;;;14.00;99.90;;;;;;5071006;28;20105;-43
2022/06/13 00:45:48;;;;;;;18.75;5.53;;;14.00;99.90;;;;;;5070485;28;20127;-44
2022/06/13 00:48:16;;;;;;;14.77;5.22;;;14.10;99.90;;;;;;5053063;28;20029;-43
2022/06/13 00:50:47;;;;;;;10.18;3.72;;;14.10;99.90;;;;;;5052743;28;20098;-45
2022/06/13 00:53:18;;;;;;;10.45;3.65;;;14.10;99.90;;;;;;5052443;28;20045;-44
2022/06/13 00:56:11;;;;;;;11.38;4.50;;;14.10;99.90;;;;;;5052804;28;20119;-43
2022/06/13 00:58:41;;;;;;;9.85;4.55;;;14.00;99.90;;;;;;5050718;28;20045;-44
2022/06/13 01:01:07;;;;;;;10.25;3.80;;;14.10;99.90;;;;;;5052484;28;20064;-45
2022/06/13 01:03:34;;;;;;;7.93;3.90;;;14.10;99.90;;;;;;5052338;28;20045;-43
2022/06/13 01:06:02;;;;;;;9.68;4.63;;;14.10;99.90;;;;;;5056147;28;20052;-43
2022/06/13 01:08:31;;;;;;;9.55;4.28;;;14.00;99.90;;;;;;5069417;28;20043;-45
2022/06/13 01:11:16;;;;;;;10.25;4.47;;;14.00;99.90;;;;;;5071588;28;20063;-44
2022/06/13 01:14:19;;;;;;;11.38;4.57;;;14.00;99.90;;;;;;5054803;28;20037;-44
2022/06/13 01:17:04;;;;;;;11.77;4.53;;;14.00;99.90;;;;;;5060576;28;20059;-44
2022/06/13 01:19:51;;;;;;;12.60;5.53;;;14.00;99.90;;;;;;5062989;28;20043;-44
2022/06/13 01:22:38;;;;;;;11.73;4.82;;;14.00;99.90;;;;;;5069850;28;20391;-43
2022/06/13 01:25:27;;;;;;;;;;;14.00;99.90;;;;;;5062811;28;20044;-44
2022/06/13 01:28:21;;;;;;;10.57;4.70;;;14.10;99.90;;;;;;5063862;28;19924;-43
2022/06/13 01:31:00;;;;;;;12.65;4.57;;;14.00;99.90;;;;;;5054575;28;20053;-43
2022/06/13 01:33:32;;;;;;;10.75;4.60;;;14.00;99.90;;;;;;5052285;28;20044;-44
2022/06/13 01:36:07;;;;;;;12.75;5.13;;;14.00;99.90;;;;;;5071553;28;20086;-43
2022/06/13 01:38:59;;;;;;;8.38;4.43;;;14.00;99.90;;;;;;5058759;28;20044;-47
2022/06/13 01:41:35;;;;;;;10.20;4.53;;;14.00;99.90;;;;;;5040342;28;20052;-43
2022/06/13 01:44:10;;;;;;;14.48;5.70;;;14.00;99.90;;;;;;5057886;28;20049;-45
2022/06/13 01:46:55;;;;;;;24.30;4.80;;;14.00;99.90;;;;;;5071962;28;20044;-44
2022/06/13 01:49:51;;;;;;;13.25;4.93;;;14.00;99.90;;;;;;5070074;28;20044;-44
2022/06/13 01:52:47;;;;;;;8.80;4.50;;;14.00;99.90;;;;;;5071423;28;20388;-43
2022/06/13 01:55:25;;;;;;;12.02;5.10;;;14.00;99.90;;;;;;5069159;28;20045;-44
2022/06/13 01:58:05;;;;;;;12.60;5.47;;;14.00;99.90;;;;;;5065703;28;20115;-44
2022/06/13 02:00:32;;;;;;;13.45;5.32;;;14.00;99.90;;;;;;5053233;28;20091;-43
2022/06/13 02:03:14;;;;;;;10.27;4.97;;;14.00;99.90;;;;;;5067435;28;20248;-44
2022/06/13 02:05:59;;;;;;;14.63;5.43;;;14.00;99.90;;;;;;5071463;28;20046;-43
2022/06/13 02:08:40;;;;;;;14.88;4.55;;;14.00;99.90;;;;;;5063911;28;20037;-44
2022/06/13 02:11:17;;;;;;;9.15;4.05;;;14.00;99.90;;;;;;5060942;28;20044;-47
2022/06/13 02:13:54;;;;;;;13.73;4.68;;;14.00;99.90;;;;;;5062571;28;20043;-43
2022/06/13 02:16:28;;;;;;;11.70;3.80;;;14.00;99.90;;;;;;5065799;28;20044;-43
2022/06/13 02:19:07;;;;;;;13.05;4.80;;;14.00;99.90;;;;;;5066732;28;20074;-43
2022/06/13 02:21:44;;;;;;;8.82;4.53;;;14.00;99.90;;;;;;5054682;28;20037;-44
2022/06/13 02:24:14;;;;;;;10.07;4.35;;;14.00;99.90;;;;;;5064660;28;20041;-44
2022/06/13 02:26:42;;;;;;;9.38;4.13;;;14.10;99.90;;;;;;5053351;28;20044;-43
2022/06/13 02:29:21;;;;;;;11.02;4.43;;;14.00;99.90;;;;;;5064149;28;20039;-44
2022/06/13 02:31:54;;;;;;;11.23;5.13;;;14.10;99.90;;;;;;5050495;28;20167;-44
2022/06/13 02:34:25;;;;;;;8.50;4.45;;;14.10;99.90;;;;;;5055793;28;20032;-44
2022/06/13 02:37:11;;;;;;;10.88;5.28;;;14.00;99.90;;;;;;5069299;28;20048;-46
2022/06/13 02:39:53;;;;;;;11.70;4.82;;;14.00;99.90;;;;;;5054336;28;20394;-44
2022/06/13 02:42:27;;;;;;;11.13;4.43;;;14.00;99.90;;;;;;5058007;28;20076;-43
2022/06/13 02:45:03;;;;;;;9.25;4.20;;;14.00;99.90;;;;;;5050203;28;20041;-43
2022/06/13 02:47:37;;;;;;;13.75;4.82;;;14.00;99.90;;;;;;5050085;28;20037;-44
2022/06/13 02:50:29;;;;;;;9.38;4.18;;;14.00;99.90;;;;;;5050134;28;20041;-43
2022/06/13 02:53:03;;;;;;;12.57;3.85;;;14.00;99.90;;;;;;5029813;28;20045;-44
2022/06/13 02:55:40;;;;;;;11.20;4.63;;;13.90;99.90;;;;;;5067931;28;20036;-43
2022/06/13 02:58:18;;;;;;;7.88;3.58;;;13.90;99.90;;;;;;5070493;28;20108;-46
2022/06/13 03:00:52;;;;;;;11.57;3.75;;;13.90;99.90;;;;;;5068673;28;20037;-44
2022/06/13 03:03:21;;;;;;;5.88;3.33;;;13.90;99.90;;;;;;5068407;28;20036;-45
2022/06/13 03:05:50;;;;;;;8.07;3.90;;;13.90;99.90;;;;;;5069135;28;20040;-44
2022/06/13 03:08:39;;;;;;;11.23;4.32;;;14.00;99.90;;;;;;5070847;28;20037;-44
2022/06/13 03:11:23;;;;;;;10.52;3.63;;;14.00;99.90;;;;;;5061065;28;20044;-44
2022/06/13 03:14:07;;;;;;;7.78;3.33;;;14.00;99.90;;;;;;5067257;28;20044;-44
2022/06/13 03:16:46;;;;;;;11.70;3.80;;;14.00;99.90;;;;;;5062013;28;20144;-44
2022/06/13 03:19:36;;;;;;;6.75;3.72;;;14.00;99.90;;;;;;5053065;28;20080;-43
2022/06/13 03:22:28;;;;;;;7.93;3.72;;;14.00;99.90;;;;;;5059150;28;20049;-43
2022/06/13 03:25:10;;;;;;;10.45;4.45;;;14.00;99.90;;;;;;5060403;28;20033;-43
2022/06/13 03:27:49;;;;;;;12.88;4.82;;;14.00;99.90;;;;;;5063602;28;20402;-44
2022/06/13 03:30:20;;;;;;;7.43;4.30;;;13.90;99.90;;;;;;5049531;28;20055;-44
2022/06/13 03:35:46;;;;;;;12.32;5.20;;;13.90;99.90;;;;;;5065176;28;20036;-44
2022/06/13 03:38:17;;;;;;;8.35;3.78;;;13.90;99.90;;;;;;5051157;28;20037;-43
2022/06/13 03:40:48;;;;;;;9.23;4.82;;;13.90;99.90;;;;;;5066809;28;20604;-44
2022/06/13 03:43:24;;;;;;;10.23;4.70;;;13.90;99.90;;;;;;5053153;28;20029;-43
2022/06/13 03:46:03;;;;;;;10.07;4.40;;;13.90;99.90;;;;;;5069838;28;20037;-45
2022/06/13 03:48:54;;;;;;;15.02;5.05;;;13.90;99.90;;;;;;5056423;28;20376;-43
2022/06/13 03:51:25;;;;;;;9.07;4.70;;;13.80;99.90;;;;;;5064312;28;20037;-43
2022/06/13 03:54:08;;;;;;;10.32;5.88;;;13.90;99.90;;;;;;5050053;28;20045;-45
2022/06/13 03:56:37;;;;;;;12.00;5.00;;;13.80;99.90;;;;;;5051727;28;20045;-43
2022/06/13 03:59:07;;;;;;;12.63;5.25;;;13.80;99.90;;;;;;5059132;28;20477;-44
2022/06/13 04:02:01;;;;;;;21.50;5.38;;;13.80;99.90;;;;;;5051613;28;20041;-44
2022/06/13 04:04:32;;;;;;;10.95;4.80;;;13.80;99.90;;;;;;5058006;28;20091;-43
2022/06/13 04:07:00;;;;;;;17.02;6.05;;;13.80;99.90;;;;;;5071695;28;20098;-44
2022/06/13 04:09:32;;;;;;;12.30;5.93;;;13.80;99.90;;;;;;5056870;28;20451;-46
2022/06/13 04:12:28;;;;;;;14.57;6.82;;;13.80;99.90;;;;;;5054323;28;20077;-45
2022/06/13 04:15:18;;;;;;;14.48;6.53;;;13.80;99.90;;;;;;5065219;28;20406;-43
2022/06/13 04:18:21;;;;;;;18.58;7.82;;;13.90;99.90;;;;;;5069731;28;20044;-44
2022/06/13 04:21:11;;;;;;;21.10;8.00;;;13.90;99.90;;;;;;5062603;28;20055;-43
2022/06/13 04:24:04;;;;;;;11.38;7.13;;;13.90;99.90;;;;;;5063810;28;20033;-44
2022/06/13 04:26:42;;;;;;;14.18;6.72;;;13.90;99.90;;;;;;5069752;28;20036;-43
2022/06/13 04:29:32;;;;;;;15.27;7.35;;;13.90;99.90;;;;;;5067330;28;20487;-44
2022/06/13 04:32:04;;;;;;;14.27;8.10;;;14.00;99.90;;;;;;5060305;28;20460;-45
2022/06/13 04:34:38;;;;;;;17.80;8.65;;;14.00;99.90;;;;;;5068816;28;20099;-44
2022/06/13 04:37:05;;;;;;;17.67;8.43;;;14.00;99.90;;;;;;5059386;28;20039;-44
2022/06/13 04:39:33;;;;;;;14.35;8.13;;;14.00;99.90;;;;;;5071006;28;20131;-44
2022/06/13 04:42:01;;;;;;;15.07;8.55;;;14.00;99.90;;;;;;5070066;28;20032;-44
2022/06/13 04:44:30;;;;;;;20.17;8.48;;;14.00;99.90;;;;;;5071256;28;20098;-45
2022/06/13 04:46:57;;;;;;;18.38;7.85;;;14.10;99.90;;;;;;5072968;28;20071;-44
2022/06/13 04:49:35;;;;;;;16.88;8.02;;;14.10;99.90;;;;;;5072963;28;20036;-43
2022/06/13 04:52:05;;;;;;;15.20;8.48;;;14.10;99.90;;;;;;5068152;28;20311;-45
2022/06/13 04:54:39;;;;;;;18.67;8.85;;;14.20;99.90;;;;;;5051695;28;20045;-43
2022/06/13 04:57:06;;;;;;;16.77;8.25;;;14.20;99.90;;;;;;5064016;28;20128;-45
2022/06/13 04:59:32;;;;;;;20.85;8.68;;;14.20;99.90;;;;;;5072657;28;20130;-44
2022/06/13 05:02:00;;;;;;;15.25;8.90;;;14.30;99.90;;;;;;5071096;28;20480;-45
2022/06/13 05:04:31;;;;;;;23.40;8.15;;;14.30;99.90;;;;;;5051956;28;20043;-44
2022/06/13 05:07:26;;;;;;;18.33;8.18;;;14.40;99.90;;;;;;5062028;28;20072;-44
2022/06/13 05:09:58;;;;;;;19.63;8.05;;;14.40;99.90;;;;;;5070183;28;20051;-44
2022/06/13 05:12:42;;;;;;;17.63;8.38;;;14.40;99.90;;;;;;5053603;28;20041;-44
2022/06/13 05:15:13;;;;;;;17.70;8.07;;;14.40;99.90;;;;;;5051691;28;20340;-44
2022/06/13 05:18:00;;;;;;;21.42;8.68;;;14.40;99.90;;;;;;5061446;28;20116;-44
2022/06/13 05:20:43;;;;;;;24.98;9.07;;;14.50;99.90;;;;;;5056732;28;20041;-43
2022/06/13 05:23:24;;;;;;;17.85;8.05;;;14.50;99.90;;;;;;5074998;28;20040;-44
2022/06/13 05:25:58;;;;;;;16.58;8.20;;;14.50;99.90;;;;;;5069841;28;20137;-44
2022/06/13 05:28:27;;;;;;;26.35;9.60;;;14.60;99.90;;;;;;5070191;28;20041;-43
2022/06/13 05:30:54;;;;;;;19.05;8.55;;;14.70;99.90;;;;;;5060495;28;20033;-48
2022/06/13 05:33:27;;;;;;;19.52;9.23;;;14.70;99.90;;;;;;5052991;28;20118;-44
2022/06/13 05:35:56;;;;;;;16.63;8.45;;;14.70;99.90;;;;;;5054609;28;20064;-43
2022/06/13 05:38:36;;;;;;;18.73;8.95;;;14.80;99.90;;;;;;5072866;28;20040;-44
2022/06/13 05:41:02;;;;;;;18.88;8.63;;;14.90;99.90;;;;;;5066051;28;20048;-44
2022/06/13 05:43:28;;;;;;;16.98;8.57;;;14.90;99.90;;;;;;5057943;28;20044;-44
2022/06/13 05:45:54;;;;;;;20.58;8.27;;;15.10;99.90;;;;;;5069591;28;20028;-44
2022/06/13 05:48:22;;;;;;;19.23;8.40;;;15.20;99.90;;;;;;5071660;28;20107;-43
2022/06/13 05:50:48;;;;;;;13.88;7.78;;;15.20;99.90;;;;;;5072007;28;20047;-44
2022/06/13 05:53:17;;;;;;;12.57;7.15;;;15.20;99.90;;;;;;5070035;28;20527;-44
2022/06/13 05:55:43;;;;;;;18.90;9.30;;;15.20;99.90;;;;;;5066422;28;20044;-44
2022/06/13 05:58:11;;;;;;;17.05;9.13;;;15.30;99.90;;;;;;5052149;28;20127;-44
2022/06/13 06:00:57;;;;;;;13.82;7.78;;;15.20;99.90;;;;;;5052454;28;20116;-44
2022/06/13 06:03:24;;;;;;;11.43;6.70;;;15.20;99.90;;;;;;5066375;28;20046;-44
2022/06/13 06:05:51;;;;;;;17.98;7.80;;;15.20;99.90;;;;;;5054722;28;20033;-43
2022/06/13 06:08:19;;;;;;;11.98;6.68;;;15.30;99.90;;;;;;5051178;28;20075;-45
2022/06/13 06:10:47;;;;;;;14.98;5.80;;;15.30;99.90;;;;;;5051651;28;20087;-43
2022/06/13 06:13:13;;;;;;;12.07;6.13;;;15.30;99.90;;;;;;5055559;28;20102;-43
2022/06/13 06:15:40;;;;;;;;;;;15.40;99.90;;;;;;5065099;28;20032;-44
2022/06/13 06:18:06;;;;;;;15.13;4.85;;;15.50;99.90;;;;;;5040653;28;19924;-44
2022/06/13 06:20:32;;;;;;;8.55;2.42;;;15.70;99.90;;;;;;5055161;28;20074;-45
2022/06/13 06:22:57;;;;;;;48.25;4.57;;;15.80;99.90;;;;;;5067931;28;20056;-45
2022/06/13 06:25:23;;;;;;;11.07;2.78;;;15.90;99.90;;;;;;5050438;28;20033;-45
2022/06/13 06:27:48;;;;;;;14.65;2.15;;;16.00;99.90;;;;;;5052368;28;20041;-46
2022/06/13 06:30:16;;;;;;;5.85;1.85;;;16.10;99.90;;;;;;5063898;28;20382;-47
2022/06/13 06:32:42;;;;;;;34.05;3.60;;;16.20;99.90;;;;;;5057725;28;20087;-44
2022/06/13 06:35:08;;;;;;;;;;;16.30;99.90;;;;;;5054741;28;20123;-46
2022/06/13 06:37:33;;;;;;;3.78;1.17;;;16.40;99.90;;;;;;5057875;28;20051;-44
2022/06/13 06:39:59;;;;;;;7.43;2.22;;;16.50;99.90;;;;;;5051983;28;20559;-44
2022/06/13 06:42:25;;;;;;;5.97;1.30;;;16.50;99.90;;;;;;5052840;28;20036;-44
2022/06/13 06:44:50;;;;;;;7.88;1.10;;;16.60;99.90;;;;;;5050955;28;20041;-46
2022/06/13 06:47:16;;;;;;;8.85;1.10;;;16.60;99.90;;;;;;5055569;28;20059;-43
2022/06/13 06:49:41;;;;;;;6.32;1.48;;;16.70;99.90;;;;;;5051509;28;20383;-45
2022/06/13 06:52:07;;;;;;;4.25;1.42;;;16.80;99.90;;;;;;5051039;28;20410;-43
2022/06/13 07:00:04;;;;;;;6.10;0.60;;;16.90;99.90;;;;;;5057005;28;20045;-45
2022/06/13 07:02:30;;;;;;;2.03;0.47;;;16.90;99.90;;;;;;5059058;28;20045;-45
2022/06/13 07:05:00;;;;;;;6.22;0.80;;;17.00;99.90;;;;;;5051683;28;20040;-44
2022/06/13 07:07:26;;;;;;;9.73;1.10;;;17.10;99.90;;;;;;5050304;28;20056;-44
2022/06/13 07:09:51;;;;;;;6.00;0.75;;;17.10;99.90;;;;;;5058498;28;20040;-44
2022/06/13 07:12:18;;;;;;;6.63;1.02;;;17.20;99.90;;;;;;5065813;28;20041;-44
2022/06/13 07:14:44;;;;;;;16.65;1.10;;;17.10;99.90;;;;;;5059841;28;20040;-44
2022/06/13 07:17:11;;;;;;;4.07;0.68;;;17.10;99.90;;;;;;5069016;28;20385;-43
2022/06/13 07:19:37;;;;;;;6.10;0.80;;;17.10;99.90;;;;;;5070091;28;20520;-43
2022/06/13 07:22:05;;;;;;;6.40;1.40;;;17.00;99.90;;;;;;5058330;28;20514;-44
2022/06/13 07:24:31;;;;;;;7.65;1.38;;;17.00;99.90;;;;;;5067416;28;20103;-44
2022/06/13 07:26:57;;;;;;;7.32;1.42;;;16.90;99.90;;;;;;5062005;28;20605;-43
2022/06/13 07:29:23;;;;;;;;;;;16.80;99.90;;;;;;5070275;28;20175;-44
2022/06/13 07:31:54;;;;;;;8.70;1.67;;;16.70;99.90;;;;;;5069623;28;19999;-43
2022/06/13 07:34:23;;;;;;;4.85;0.50;;;16.50;99.90;;;;;;5062851;28;20422;-45
2022/06/13 07:36:51;;;;;;;3.53;0.70;;;16.20;99.90;;;;;;5056072;28;20056;-44
2022/06/13 07:39:17;;;;;;;6.05;0.40;;;15.90;99.90;;;;;;5062431;28;20080;-44
2022/06/13 07:41:43;;;;;;;;;;;15.70;99.90;;;;;;5064842;28;20430;-43
2022/06/13 07:44:19;;;;;;;2.05;0.40;;;15.50;99.90;;;;;;5061539;28;19999;-43
2022/06/13 07:46:46;;;;;;;3.45;0.63;;;15.40;99.90;;;;;;5058231;28;20154;-43
2022/06/13 07:49:12;;;;;;;3.42;0.43;;;15.30;99.90;;;;;;5058430;28;20130;-43
2022/06/13 07:51:38;;;;;;;;;;;15.20;99.90;;;;;;5061169;28;20135;-43
2022/06/13 07:54:04;;;;;;;3.63;0.30;;;15.10;99.90;;;;;;5063441;28;20598;-43
2022/06/13 07:56:30;;;;;;;5.40;0.50;;;15.10;99.90;;;;;;5046156;28;20040;-44
2022/06/13 07:58:57;;;;;;;1.67;0.57;;;15.00;99.90;;;;;;5055350;28;20032;-44
2022/06/13 08:01:24;;;;;;;2.53;0.40;;;15.10;99.90;;;;;;5052070;28;20052;-43
2022/06/13 08:03:51;;;;;;;0.95;0.30;;;15.20;99.90;;;;;;5057773;28;20052;-45
2022/06/13 08:06:17;;;;;;;2.88;0.40;;;15.30;99.90;;;;;;5054813;28;20032;-43
2022/06/13 08:08:45;;;;;;;3.72;0.43;;;15.40;99.90;;;;;;5057710;28;20060;-45
2022/06/13 08:11:17;;;;;;;1.20;0.47;;;15.50;99.90;;;;;;5050633;28;20468;-43
2022/06/13 08:13:43;;;;;;;3.38;0.40;;;15.70;99.90;;;;;;5045521;28;20627;-43
2022/06/13 08:16:09;;;;;;;4.55;0.50;;;15.80;99.90;;;;;;5046418;28;20045;-43
2022/06/13 08:18:36;;;;;;;2.60;0.60;;;15.90;99.90;;;;;;5052032;28;20040;-44
2022/06/13 08:21:03;;;;;;;5.78;0.60;;;16.00;99.90;;;;;;5053591;28;20036;-44
2022/06/13 08:23:29;;;;;;;3.58;0.80;;;16.10;99.90;;;;;;5055063;28;20117;-44
2022/06/13 08:25:54;;;;;;;;;;;16.20;99.90;;;;;;5060852;28;20509;-44
2022/06/13 08:28:20;;;;;;;2.58;0.45;;;16.30;99.90;;;;;;5050579;28;19974;-44
2022/06/13 08:30:54;;;;;;;6.93;0.90;;;16.50;99.90;;;;;;5052310;28;20075;-46
2022/06/13 08:33:20;;;;;;;2.60;0.43;;;16.50;99.90;;;;;;5051803;28;20048;-44
2022/06/13 08:35:46;;;;;;;8.25;0.70;;;16.60;99.90;;;;;;5054251;28;20040;-45
2022/06/13 08:38:12;;;;;;;;;;;16.70;99.90;;;;;;5058589;28;20045;-44
2022/06/13 08:41:15;;;;;;;7.80;0.75;;;16.80;99.90;;;;;;5061011;28;19924;-44
2022/06/13 08:44:12;;;;;;;2.20;0.70;;;16.90;99.90;;;;;;5057211;28;20406;-44
2022/06/13 08:46:42;;;;;;;4.32;0.60;;;17.10;99.90;;;;;;5053403;28;20117;-44
2022/06/13 08:49:35;;;;;;;2.95;0.60;;;17.20;99.90;;;;;;5051014;28;20127;-44
2022/06/13 08:52:14;;;;;;;6.82;0.85;;;17.20;99.90;;;;;;5062047;28;20052;-43
2022/06/13 08:54:42;;;;;;;3.70;0.50;;;17.10;99.90;;;;;;5048508;28;20379;-43
2022/06/13 08:57:11;;;;;;;3.53;0.32;;;17.10;99.90;;;;;;5058935;28;20041;-44
2022/06/13 08:59:48;;;;;;;5.35;1.25;;;17.00;99.90;;;;;;5047546;28;20037;-44
2022/06/13 09:02:52;;;;;;;2.65;0.68;;;17.00;99.90;;;;;;5052331;28;20041;-46
2022/06/13 09:05:35;;;;;;;3.30;0.52;;;16.90;99.90;;;;;;5027777;28;20416;-44
2022/06/13 09:08:15;;;;;;;7.95;0.93;;;16.90;99.90;;;;;;5066805;28;20600;-44
2022/06/13 09:11:05;;;;;;;6.30;0.60;;;16.80;99.90;;;;;;5064753;28;20062;-43
2022/06/13 09:13:45;;;;;;;7.22;0.57;;;16.80;99.90;;;;;;5065965;28;20376;-44
2022/06/13 09:16:32;;;;;;;4.05;0.93;;;16.80;99.90;;;;;;5050389;28;20049;-44
2022/06/13 09:19:21;;;;;;;6.53;1.23;;;16.90;99.90;;;;;;5065349;28;20044;-43
2022/06/13 09:22:05;;;;;;;7.28;0.60;;;16.90;99.90;;;;;;5025839;28;20123;-43
2022/06/13 09:24:56;;;;;;;4.88;0.60;;;16.90;99.90;;;;;;5048616;28;20044;-43
2022/06/13 09:27:50;;;;;;;5.78;0.73;;;17.00;99.90;;;;;;5064379;28;20048;-43
2022/06/13 09:30:27;;;;;;;3.05;0.88;;;17.00;99.90;;;;;;5059733;28;20048;-43
2022/06/13 09:33:00;;;;;;;3.95;0.60;;;17.10;99.90;;;;;;5050602;28;20052;-44
2022/06/13 09:35:33;;;;;;;3.78;0.80;;;17.20;99.90;;;;;;5058466;28;20097;-43
2022/06/13 09:38:34;;;;;;;7.13;0.65;;;17.10;99.90;;;;;;5066416;28;20045;-44
2022/06/13 09:41:02;;;;;;;5.03;0.20;;;17.10;99.90;;;;;;5018608;28;20063;-43
2022/06/13 09:43:55;;;;;;;4.82;0.52;;;17.10;99.90;;;;;;5065380;28;20052;-44
2022/06/13 09:46:39;;;;;;;9.10;0.70;;;17.20;99.90;;;;;;5055703;28;20439;-44
2022/06/13 09:49:42;;;;;;;5.00;0.82;;;17.40;99.90;;;;;;5058036;28;20567;-43
2022/06/13 09:52:35;;;;;;;3.85;0.60;;;17.60;99.90;;;;;;5053165;28;20036;-44
2022/06/13 09:55:14;;;;;;;2.70;0.20;;;17.70;99.90;;;;;;5065776;28;20077;-43
2022/06/13 09:57:53;;;;;;;3.10;0.38;;;17.70;99.90;;;;;;5046380;28;20052;-44
2022/06/13 10:00:45;;;;;;;3.00;0.63;;;17.70;99.90;;;;;;5054459;28;20087;-45
2022/06/13 10:03:30;;;;;;;1.67;0.30;;;17.60;99.90;;;;;;5053360;28;20064;-44
2022/06/13 10:06:12;;;;;;;3.83;0.77;;;17.50;99.90;;;;;;5056243;28;20440;-44
2022/06/13 10:08:44;;;;;;;1.40;0.25;;;17.40;99.90;;;;;;5054532;28;20480;-43
2022/06/13 10:11:30;;;;;;;4.15;0.40;;;17.40;99.90;;;;;;5054125;28;20398;-45
2022/06/13 10:14:19;;;;;;;2.40;0.20;;;17.50;99.80;;;;;;5054608;28;20101;-43
2022/06/13 10:16:57;;;;;;;4.13;0.30;;;17.60;99.20;;;;;;5058959;28;20036;-46
2022/06/13 10:19:41;;;;;;;2.17;0.30;;;17.50;99.30;;;;;;5047245;28;20047;-47
2022/06/13 10:22:16;;;;;;;4.05;0.43;;;17.50;98.70;;;;;;5059965;28;20129;-44
2022/06/13 10:25:04;;;;;;;3.90;0.30;;;17.40;98.60;;;;;;5055535;28;20440;-44
2022/06/13 10:28:03;;;;;;;3.00;0.25;;;17.40;98.70;;;;;;5057992;28;20032;-45
2022/06/13 10:30:53;;;;;;;6.10;0.57;;;17.60;99.20;;;;;;5059220;28;20389;-43
2022/06/13 10:33:25;;;;;;;2.00;0.22;;;17.70;98.70;;;;;;5056728;28;20369;-43
2022/06/13 10:35:55;;;;;;;2.50;0.32;;;17.90;99.60;;;;;;5055236;28;20535;-44
2022/06/13 10:38:34;;;;;;;1.83;0.20;;;18.10;99.40;;;;;;5052757;28;20037;-43
2022/06/13 10:41:00;;;;;;;3.60;0.50;;;18.20;99.10;;;;;;5060480;28;20044;-44
2022/06/13 10:43:25;;;;;;;3.72;0.57;;;18.30;99.50;;;;;;5050948;28;20044;-43
2022/06/13 10:45:51;;;;;;;2.95;0.30;;;18.30;99.50;;;;;;5045906;28;20154;-43
2022/06/13 10:48:24;;;;;;;4.60;0.57;;;18.30;98.20;;;;;;5052501;28;20051;-43
2022/06/13 10:50:55;;;;;;;4.68;0.65;;;18.30;98.70;;;;;;5050101;28;20494;-45
2022/06/13 10:53:35;;;;;;;4.90;0.40;;;18.30;98.30;;;;;;5048574;28;20036;-44
2022/06/13 10:56:04;;;;;;;3.00;0.40;;;18.40;98.40;;;;;;5061655;28;20036;-43
2022/06/13 10:58:47;;;;;;;3.22;0.20;;;18.50;98.20;;;;;;5054251;28;20064;-43
2022/06/13 11:01:20;;;;;;;2.58;0.47;;;18.70;98.40;;;;;;5050084;28;20037;-46
2022/06/13 11:04:16;;;;;;;2.28;0.30;;;18.80;97.80;;;;;;5053041;28;20082;-43
2022/06/13 11:06:51;;;;;;;2.30;0.30;;;18.90;95.30;;;;;;5062009;28;20036;-44
2022/06/13 11:09:37;;;;;;;2.42;0.40;;;18.90;96.30;;;;;;5052334;28;20057;-44
2022/06/13 11:12:15;;;;;;;4.70;0.93;;;19.00;96.80;;;;;;5048720;28;20040;-44
2022/06/13 11:23:07;;;;;;;2.70;0.40;;;19.00;96.20;;;;;;5047438;28;20072;-44
2022/06/13 11:25:35;;;;;;;5.70;0.45;;;18.90;95.80;;;;;;5048076;28;20076;-43
2022/06/13 11:28:18;;;;;;;3.83;0.35;;;19.00;95.50;;;;;;5050876;28;20047;-43
2022/06/13 11:31:02;;;;;;;12.48;1.02;;;19.00;95.60;;;;;;5049710;28;20120;-43
2022/06/13 11:33:32;;;;;;;4.57;0.40;;;19.00;95.80;;;;;;5044169;28;20052;-43
2022/06/13 11:36:21;;;;;;;1.88;0.30;;;19.10;94.90;;;;;;5045147;28;20462;-43
2022/06/13 11:39:08;;;;;;;6.32;0.57;;;19.10;95.40;;;;;;5057020;28;20036;-43
2022/06/13 11:41:34;;;;;;;3.00;0.28;;;19.20;93.40;;;;;;5063564;28;20070;-44
2022/06/13 11:44:07;;;;;;;5.90;0.63;;;19.10;94.80;;;;;;5052475;28;20048;-43
2022/06/13 11:46:53;;;;;;;6.43;0.60;;;19.10;94.80;;;;;;5044980;28;20387;-44
2022/06/13 11:49:33;;;;;;;9.88;1.20;;;19.00;94.40;;;;;;5047909;28;20537;-44
2022/06/13 11:55:17;;;;;;;5.03;0.85;;;18.60;94.90;;;;;;5045786;28;20473;-44
2022/06/13 11:57:52;;;;;;;5.55;0.40;;;18.30;95.30;;;;;;5062509;28;20402;-43
2022/06/13 12:00:18;;;;;;;5.25;0.32;;;18.20;96.20;;;;;;5059137;28;20043;-43
2022/06/13 12:02:50;;;;;;;5.05;0.70;;;18.10;96.00;;;;;;5055510;28;20099;-44
2022/06/13 12:05:23;;;;;;;2.97;0.65;;;18.10;96.80;;;;;;5058479;28;20386;-44
2022/06/13 12:07:55;;;;;;;4.97;0.45;;;18.00;97.10;;;;;;5053540;28;20169;-44
2022/06/13 12:10:26;;;;;;;5.50;1.20;;;17.90;97.60;;;;;;5051826;28;20041;-43
2022/06/13 12:12:52;;;;;;;5.05;0.60;;;17.90;97.60;;;;;;5051595;28;20041;-44
2022/06/13 12:15:19;;;;;;;3.47;0.52;;;17.80;97.80;;;;;;5053679;28;20339;-45
2022/06/13 12:17:59;;;;;;;7.95;0.50;;;17.80;98.00;;;;;;5050319;28;20056;-43
2022/06/13 12:20:54;;;;;;;5.10;0.50;;;17.80;98.30;;;;;;5059090;28;20099;-44
2022/06/13 12:23:30;;;;;;;4.93;0.65;;;17.90;97.90;;;;;;5053953;28;20560;-44
2022/06/13 12:26:20;;;;;;;3.60;0.80;;;17.90;97.70;;;;;;5056847;28;20108;-44
2022/06/13 12:29:00;;;;;;;7.47;0.93;;;17.90;97.70;;;;;;5050047;28;20041;-43
2022/06/13 12:31:33;;;;;;;5.38;0.40;;;17.90;97.10;;;;;;5057430;28;20411;-44
2022/06/13 12:34:18;;;;;;;5.25;0.63;;;17.90;97.30;;;;;;5064192;28;20071;-44
2022/06/13 12:37:07;;;;;;;12.02;0.95;;;17.90;96.50;;;;;;5057529;28;20121;-44
2022/06/13 12:39:38;;;;;;;5.18;0.60;;;18.00;97.40;;;;;;5034911;28;20048;-43
2022/06/13 12:42:04;;;;;;;2.55;0.43;;;18.10;96.00;;;;;;5050022;28;20051;-44
2022/06/13 12:44:47;;;;;;;4.43;0.70;;;18.10;96.30;;;;;;5057781;28;20037;-44
2022/06/13 12:47:28;;;;;;;3.95;0.45;;;18.10;95.60;;;;;;5047595;28;20441;-43
2022/06/13 12:50:25;;;;;;;6.97;0.30;;;18.10;95.60;;;;;;5050277;28;20568;-46
2022/06/13 12:52:51;;;;;;;6.70;0.70;;;18.00;95.80;;;;;;5054214;28;20061;-43
2022/06/13 12:55:53;;;;;;;5.88;0.45;;;18.10;96.50;;;;;;5061340;28;20040;-44
2022/06/13 12:58:36;;;;;;;4.05;0.57;;;18.20;95.60;;;;;;5052622;28;20082;-46
2022/06/13 13:01:25;;;;;;;5.13;0.60;;;18.20;96.60;;;;;;5050233;28;20047;-45
2022/06/13 13:04:24;;;;;;;5.70;0.50;;;18.20;96.30;;;;;;5054898;28;20098;-44
2022/06/13 13:07:14;;;;;;;4.07;0.55;;;18.20;97.20;;;;;;5058466;28;20509;-45
2022/06/13 13:10:05;;;;;;;6.43;0.80;;;18.10;97.10;;;;;;5051041;28;20128;-44
2022/06/13 13:13:00;;;;;;;4.05;0.40;;;18.10;97.50;;;;;;5055914;28;20048;-46
2022/06/13 13:16:06;;;;;;;1.60;0.30;;;18.10;96.70;;;;;;5053530;28;20482;-43
2022/06/13 13:18:43;;;;;;;6.00;0.45;;;17.90;97.00;;;;;;5053902;28;20044;-45
2022/06/13 13:21:23;;;;;;;3.42;0.50;;;17.90;97.10;;;;;;5057491;28;20497;-43
2022/06/13 13:24:10;;;;;;;7.30;0.50;;;17.90;96.30;;;;;;5061049;28;20041;-43
2022/06/13 13:26:49;;;;;;;;;;;18.00;96.50;;;;;;5054827;28;20051;-44
2022/06/13 13:29:33;;;;;;;6.95;0.50;;;18.10;96.10;;;;;;5056752;28;20420;-45
2022/06/13 13:32:21;;;;;;;6.85;0.70;;;18.10;96.50;;;;;;5056255;28;20037;-43
2022/06/13 13:35:12;;;;;;;;;;;18.20;96.60;;;;;;5054011;28;20033;-43
2022/06/13 13:37:43;;;;;;;1.45;0.20;;;18.30;95.90;;;;;;5053445;28;20057;-45
2022/06/13 13:40:30;;;;;;;2.53;0.43;;;18.40;94.50;;;;;;5052964;28;20081;-43
2022/06/13 13:43:21;;;;;;;8.43;1.27;;;18.40;93.90;;;;;;5055010;28;20466;-43
2022/06/13 13:46:21;;;;;;;2.47;0.40;;;18.40;94.70;;;;;;5056759;28;20037;-44
2022/06/13 13:48:49;;;;;;;6.10;0.70;;;18.40;95.10;;;;;;5035909;28;20063;-43
2022/06/13 13:51:23;;;;;;;3.90;0.50;;;18.40;95.40;;;;;;5055397;28;20462;-43